createdAt,value
2018-10-06T00:00:49.859Z,74.60
2018-10-06T00:03:18.717Z,74.60
2018-10-06T00:05:47.248Z,73.90
2018-10-06T00:08:15.884Z,74.70
2018-10-06T00:10:44.768Z,74.50
2018-10-06T00:13:13.477Z,74.60
2018-10-06T00:15:42.133Z,74.50
2018-10-06T00:18:10.823Z,74.30
2018-10-06T00:20:39.536Z,74.20
2018-10-06T00:23:08.306Z,73.80
2018-10-06T00:25:37.110Z,74.80
2018-10-06T00:28:06.071Z,74.40
2018-10-06T00:30:34.857Z,74.80
2018-10-06T00:33:03.504Z,74.60
2018-10-06T00:35:32.058Z,74.10
2018-10-06T00:38:00.897Z,74.70
2018-10-06T00:40:29.421Z,74.30
2018-10-06T00:42:58.113Z,74.70
2018-10-06T00:45:26.996Z,74.20
2018-10-06T00:47:55.868Z,73.90
2018-10-06T00:50:24.756Z,73.90
2018-10-06T00:52:53.580Z,74.10
2018-10-06T00:55:22.096Z,74.00
2018-10-06T00:57:50.801Z,74.00
2018-10-06T01:00:19.495Z,73.60
2018-10-06T01:02:48.144Z,73.30
2018-10-06T01:05:16.954Z,73.50
2018-10-06T01:07:45.810Z,73.90
2018-10-06T01:10:14.637Z,73.60
2018-10-06T01:12:43.050Z,73.60
2018-10-06T01:15:11.582Z,73.50
2018-10-06T01:17:40.287Z,73.90
2018-10-06T01:20:08.623Z,74.60
2018-10-06T01:22:37.436Z,74.60
2018-10-06T01:25:06.254Z,75.00
2018-10-06T01:27:35.187Z,75.00
2018-10-06T01:30:03.911Z,75.30
2018-10-06T01:32:32.609Z,75.60
2018-10-06T01:35:01.511Z,75.30
2018-10-06T01:37:30.128Z,75.60
2018-10-06T01:39:58.853Z,76.60
2018-10-06T01:42:27.567Z,77.10
2018-10-06T01:44:56.209Z,77.00
2018-10-06T01:47:24.925Z,76.50
2018-10-06T01:49:54.240Z,76.50
2018-10-06T01:52:23.083Z,77.20
2018-10-06T01:54:51.789Z,77.50
2018-10-06T01:57:20.699Z,77.40
2018-10-06T01:59:49.519Z,77.10
2018-10-06T02:02:17.998Z,77.30
2018-10-06T02:04:46.743Z,77.10
2018-10-06T02:07:15.583Z,77.30
2018-10-06T02:09:44.059Z,77.30
2018-10-06T02:12:12.812Z,76.50
2018-10-06T02:14:41.460Z,76.60
2018-10-06T02:17:09.919Z,76.20
2018-10-06T02:19:38.647Z,76.20
2018-10-06T02:22:07.105Z,77.10
2018-10-06T02:24:35.796Z,77.60
2018-10-06T02:27:04.324Z,77.40
2018-10-06T02:29:32.710Z,76.80
2018-10-06T02:32:01.453Z,77.10
2018-10-06T02:34:29.960Z,79.30
2018-10-06T02:36:58.637Z,78.60
2018-10-06T02:39:27.293Z,77.60
2018-10-06T02:41:55.997Z,78.00
2018-10-06T02:44:24.430Z,78.60
2018-10-06T02:46:52.988Z,77.10
2018-10-06T02:49:21.855Z,76.60
2018-10-06T02:51:50.484Z,76.30
2018-10-06T02:54:20.425Z,76.20
2018-10-06T02:56:49.130Z,76.50
2018-10-06T02:59:17.999Z,76.00
2018-10-06T03:01:46.722Z,75.90
2018-10-06T03:04:15.406Z,76.00
2018-10-06T03:06:44.281Z,76.30
2018-10-06T03:09:12.953Z,75.80
2018-10-06T03:11:41.432Z,75.90
2018-10-06T03:14:09.891Z,75.50
2018-10-06T03:16:38.384Z,75.30
2018-10-06T03:19:07.258Z,75.70
2018-10-06T03:21:36.009Z,75.90
2018-10-06T03:24:04.888Z,76.20
2018-10-06T03:26:33.795Z,76.80
2018-10-06T03:29:19.674Z,78.20
2018-10-06T03:32:09.570Z,79.00
2018-10-06T03:35:00.423Z,79.40
2018-10-06T03:37:31.801Z,80.00
2018-10-06T03:40:00.457Z,81.60
2018-10-06T03:42:28.716Z,82.20
2018-10-06T03:44:57.461Z,83.50
2018-10-06T03:47:26.321Z,84.20
2018-10-06T03:49:54.769Z,85.60
2018-10-06T03:52:23.594Z,86.00
2018-10-06T03:54:52.367Z,86.10
2018-10-06T03:57:20.802Z,86.10
2018-10-06T03:59:49.353Z,86.30
2018-10-06T04:02:18.042Z,86.50
2018-10-06T04:04:46.664Z,86.60
2018-10-06T04:07:15.411Z,86.60
2018-10-06T04:09:44.306Z,86.80
2018-10-06T04:12:12.983Z,86.90
2018-10-06T04:14:41.667Z,86.90
2018-10-06T04:17:11.335Z,86.90
2018-10-06T04:19:39.859Z,86.40
2018-10-06T04:22:08.757Z,86.90
2018-10-06T04:24:37.397Z,87.10
2018-10-06T04:27:05.875Z,87.00
2018-10-06T04:29:34.376Z,87.30
2018-10-06T04:32:03.273Z,87.50
2018-10-06T04:34:32.154Z,87.40
2018-10-06T04:37:00.659Z,87.30
2018-10-06T04:39:29.330Z,87.50
2018-10-06T04:41:58.004Z,87.70
2018-10-06T04:44:26.510Z,88.10
2018-10-06T04:46:55.189Z,88.00
2018-10-06T04:49:23.667Z,88.00
2018-10-06T04:51:52.365Z,88.00
2018-10-06T04:54:21.239Z,88.30
2018-10-06T04:56:49.896Z,88.30
2018-10-06T04:59:18.386Z,88.50
2018-10-06T05:01:46.872Z,88.50
2018-10-06T05:04:15.326Z,88.30
2018-10-06T05:06:44.264Z,87.50
2018-10-06T05:09:12.974Z,88.40
2018-10-06T05:11:41.590Z,88.70
2018-10-06T05:14:10.304Z,88.50
2018-10-06T05:16:38.969Z,88.60
2018-10-06T05:19:07.440Z,88.50
2018-10-06T05:21:36.173Z,88.80
2018-10-06T05:24:05.062Z,88.50
2018-10-06T05:26:33.709Z,88.40
2018-10-06T05:29:02.252Z,88.30
2018-10-06T05:31:30.893Z,88.10
2018-10-06T05:33:59.362Z,87.90
2018-10-06T05:36:32.982Z,87.70
2018-10-06T05:39:06.147Z,87.70
2018-10-06T05:41:34.886Z,87.70
2018-10-06T05:44:04.577Z,87.70
2018-10-06T05:46:33.544Z,87.60
2018-10-06T05:49:02.357Z,87.70
2018-10-06T05:51:31.222Z,87.30
2018-10-06T05:53:59.683Z,87.40
2018-10-06T05:56:28.204Z,87.20
2018-10-06T05:58:56.945Z,87.60
2018-10-06T06:01:28.584Z,87.40
2018-10-06T06:03:57.327Z,87.40
2018-10-06T06:06:26.201Z,87.30
2018-10-06T06:08:54.700Z,86.90
2018-10-06T06:11:23.358Z,87.40
2018-10-06T06:13:51.821Z,87.90
2018-10-06T06:16:24.544Z,88.10
2018-10-06T06:18:54.132Z,88.30
2018-10-06T06:21:23.664Z,88.30
2018-10-06T06:23:54.675Z,88.20
2018-10-06T06:26:25.237Z,88.60
2018-10-06T06:28:56.300Z,88.90
2018-10-06T06:31:27.940Z,89.00
2018-10-06T06:33:56.713Z,89.50
2018-10-06T06:36:25.181Z,89.70
2018-10-06T06:38:53.664Z,89.70
2018-10-06T06:41:32.611Z,89.80
2018-10-06T06:44:13.939Z,89.90
2018-10-06T06:46:45.338Z,90.00
2018-10-06T06:49:15.750Z,90.10
2018-10-06T06:51:45.123Z,90.10
2018-10-06T06:54:15.279Z,90.10
2018-10-06T06:56:45.837Z,90.10
2018-10-06T07:06:06.755Z,89.80
2018-10-06T07:08:49.906Z,89.10
2018-10-06T07:11:20.908Z,89.30
2018-10-06T07:13:49.360Z,89.20
2018-10-06T07:16:18.081Z,89.00
2018-10-06T07:18:58.448Z,88.30
2018-10-06T07:21:46.388Z,87.90
2018-10-06T07:24:36.232Z,87.40
2018-10-06T07:27:24.122Z,86.70
2018-10-06T07:29:53.650Z,85.80
2018-10-06T07:32:22.615Z,85.70
2018-10-06T07:34:51.363Z,85.70
2018-10-06T07:37:20.082Z,85.60
2018-10-06T07:39:48.755Z,85.60
2018-10-06T07:42:18.533Z,85.50
2018-10-06T07:44:47.217Z,85.60
2018-10-06T07:47:15.815Z,85.30
2018-10-06T07:49:44.711Z,85.90
2018-10-06T07:52:13.411Z,85.60
2018-10-06T07:54:42.060Z,85.90
2018-10-06T07:57:10.808Z,86.20
2018-10-06T07:59:56.086Z,85.60
2018-10-06T08:02:46.028Z,85.60
2018-10-06T08:05:32.268Z,85.70
2018-10-06T08:08:15.247Z,84.40
2018-10-06T08:11:02.071Z,83.50
2018-10-06T08:13:49.307Z,84.00
2018-10-06T08:16:36.350Z,83.60
2018-10-06T08:19:23.004Z,83.10
2018-10-06T08:22:10.747Z,83.50
2018-10-06T08:24:58.375Z,83.00
2018-10-06T08:27:44.440Z,82.30
2018-10-06T08:30:29.912Z,81.80
2018-10-06T08:33:16.921Z,81.40
2018-10-06T08:35:48.073Z,81.70
2018-10-06T08:38:19.113Z,80.50
2018-10-06T08:40:50.326Z,80.40
2018-10-06T08:43:18.844Z,80.10
2018-10-06T08:45:47.326Z,79.80
2018-10-06T08:48:15.820Z,79.10
2018-10-06T08:50:44.476Z,78.10
2018-10-06T08:53:13.202Z,77.20
2018-10-06T08:55:42.102Z,76.80
2018-10-06T08:58:10.968Z,76.10
2018-10-06T09:00:39.854Z,74.90
2018-10-06T09:03:08.349Z,73.60
2018-10-06T09:05:36.827Z,73.60
2018-10-06T09:08:05.497Z,72.60
2018-10-06T09:10:34.396Z,72.10
2018-10-06T09:13:02.892Z,70.80
2018-10-06T09:15:31.806Z,70.40
2018-10-06T09:19:30.161Z,70.30
2018-10-06T09:21:59.362Z,71.10
2018-10-06T09:24:28.145Z,70.00
2018-10-06T09:26:56.834Z,70.20
2018-10-06T09:29:25.536Z,71.00
2018-10-06T09:31:54.207Z,70.80
2018-10-06T09:34:23.072Z,70.30
2018-10-06T09:36:51.756Z,70.30
2018-10-06T09:39:20.267Z,70.60
2018-10-06T09:41:49.130Z,70.40
2018-10-06T09:44:18.771Z,70.80
2018-10-06T09:46:47.423Z,71.00
2018-10-06T09:49:17.213Z,70.50
2018-10-06T09:51:46.713Z,70.60
2018-10-06T09:54:16.254Z,70.90
2018-10-06T09:56:44.929Z,71.00
2018-10-06T09:59:13.497Z,70.90
2018-10-06T10:01:53.298Z,70.90
2018-10-06T10:04:23.084Z,70.90
2018-10-06T10:06:51.767Z,71.20
2018-10-06T10:09:21.304Z,71.60
2018-10-06T10:11:51.218Z,71.90
2018-10-06T10:14:19.934Z,71.80
2018-10-06T10:16:49.288Z,72.00
2018-10-06T10:19:18.540Z,72.10
2018-10-06T10:21:47.252Z,72.30
2018-10-06T10:24:15.843Z,72.90
2018-10-06T10:26:45.611Z,71.80
2018-10-06T10:29:14.440Z,72.10
2018-10-06T10:31:43.551Z,72.00
2018-10-06T10:34:12.465Z,71.90
2018-10-06T10:36:42.398Z,71.50
2018-10-06T10:39:12.464Z,71.40
2018-10-06T10:41:41.268Z,71.70
2018-10-06T10:44:09.865Z,71.80
2018-10-06T10:46:40.837Z,71.60
2018-10-06T10:49:09.621Z,71.30
2018-10-06T10:51:37.681Z,71.40
2018-10-06T10:54:06.453Z,71.10
2018-10-06T10:56:34.607Z,71.30
2018-10-06T10:59:02.805Z,71.10
2018-10-06T11:01:31.845Z,71.40
2018-10-06T11:04:00.777Z,71.60
2018-10-06T11:06:31.533Z,72.10
2018-10-06T11:08:59.585Z,71.70
2018-10-06T11:11:28.119Z,71.80
2018-10-06T11:13:56.827Z,71.90
2018-10-06T11:16:25.576Z,71.60
2018-10-06T11:18:53.920Z,71.40
2018-10-06T11:21:22.775Z,71.10
2018-10-06T11:23:51.646Z,71.40
2018-10-06T11:26:20.209Z,71.60
2018-10-06T11:28:48.871Z,71.60
2018-10-06T11:31:20.495Z,71.70
2018-10-06T11:33:49.724Z,71.80
2018-10-06T11:36:19.983Z,72.40
2018-10-06T11:38:49.763Z,71.80
2018-10-06T11:41:22.250Z,72.30
2018-10-06T11:43:51.677Z,72.50
2018-10-06T11:46:21.195Z,72.00
2018-10-06T11:48:51.396Z,72.40
2018-10-06T11:51:21.568Z,72.40
2018-10-06T11:53:50.996Z,72.90
2018-10-06T11:56:21.680Z,73.20
2018-10-06T11:58:50.535Z,73.60
2018-10-06T12:01:19.254Z,73.30
2018-10-06T12:03:52.161Z,73.10
2018-10-06T12:06:20.801Z,72.50
2018-10-06T12:08:48.892Z,72.10
2018-10-06T12:11:17.776Z,73.60
2018-10-06T12:13:47.441Z,74.20
2018-10-06T12:16:17.158Z,74.70
2018-10-06T12:18:47.617Z,76.90
2018-10-06T12:21:17.450Z,76.90
2018-10-06T12:23:47.455Z,79.70
2018-10-06T12:26:15.573Z,80.30
2018-10-06T12:28:45.257Z,80.20
2018-10-06T12:31:14.048Z,80.70
2018-10-06T12:33:45.249Z,80.50
2018-10-06T12:36:15.696Z,81.60
2018-10-06T12:38:47.258Z,82.10
2018-10-06T12:41:16.816Z,82.70
2018-10-06T12:43:49.551Z,82.50
2018-10-06T12:46:22.681Z,82.50
2018-10-06T12:48:53.475Z,83.40
2018-10-06T12:51:24.045Z,83.30
2018-10-06T12:53:52.683Z,84.00
2018-10-06T12:56:21.738Z,84.70
2018-10-06T12:58:53.026Z,84.70
2018-10-06T13:01:23.988Z,84.60
2018-10-06T13:03:52.772Z,85.40
2018-10-06T13:06:21.877Z,85.20
2018-10-06T13:08:51.411Z,85.40
2018-10-06T13:11:20.019Z,85.90
2018-10-06T13:13:49.332Z,86.10
2018-10-06T13:16:17.978Z,86.10
2018-10-06T13:18:46.685Z,86.10
2018-10-06T13:21:16.208Z,86.70
2018-10-06T13:23:45.793Z,86.80
2018-10-06T13:26:14.891Z,86.30
2018-10-06T13:28:45.478Z,86.40
2018-10-06T13:31:15.568Z,86.60
2018-10-06T13:33:44.357Z,86.70
2018-10-06T13:36:13.843Z,86.90
2018-10-06T13:38:43.361Z,86.20
2018-10-06T13:41:13.264Z,85.90
2018-10-06T13:43:43.512Z,86.70
2018-10-06T13:46:13.445Z,86.70
2018-10-06T13:48:42.200Z,87.20
2018-10-06T13:51:16.342Z,87.70
2018-10-06T13:53:45.553Z,87.30
2018-10-06T13:56:15.432Z,87.40
2018-10-06T13:58:44.098Z,88.10
2018-10-06T14:01:14.997Z,87.90
2018-10-06T14:03:44.851Z,87.10
2018-10-06T14:06:14.867Z,87.30
2018-10-06T14:08:50.034Z,87.80
2018-10-06T14:11:18.736Z,87.60
2018-10-06T14:13:50.144Z,87.10
2018-10-06T14:16:20.236Z,86.70
2018-10-06T14:18:50.477Z,86.40
2018-10-06T14:21:19.789Z,86.50
2018-10-06T14:23:49.621Z,86.00
2018-10-06T14:26:20.080Z,85.80
2018-10-06T14:28:49.115Z,85.40
2018-10-06T14:31:19.655Z,85.30
2018-10-06T14:33:49.040Z,85.60
2018-10-06T14:36:17.895Z,87.10
2018-10-06T14:38:47.396Z,86.70
2018-10-06T14:41:18.179Z,86.80
2018-10-06T14:43:47.717Z,86.60
2018-10-06T14:46:17.346Z,86.60
2018-10-06T14:48:48.128Z,86.70
2018-10-06T14:51:17.019Z,87.20
2018-10-06T14:53:45.648Z,87.10
2018-10-06T14:56:15.151Z,86.60
2018-10-06T14:58:44.671Z,85.70
2018-10-06T15:01:15.578Z,86.10
2018-10-06T15:03:44.115Z,86.60
2018-10-06T15:06:15.272Z,86.10
2018-10-06T15:08:44.577Z,86.60
2018-10-06T15:11:17.392Z,85.60
2018-10-06T15:13:58.100Z,85.10
2018-10-06T15:16:28.432Z,84.90
2018-10-06T15:18:59.354Z,85.40
2018-10-06T15:21:30.038Z,85.60
2018-10-06T15:24:00.416Z,85.80
2018-10-06T15:26:30.966Z,85.40
2018-10-06T15:29:03.680Z,86.10
2018-10-06T15:31:36.205Z,87.00
2018-10-06T15:34:11.010Z,86.20
2018-10-06T15:36:44.845Z,86.80
2018-10-06T15:39:15.475Z,86.50
2018-10-06T15:41:46.891Z,87.70
2018-10-06T15:44:17.982Z,88.00
2018-10-06T15:46:48.586Z,88.00
2018-10-06T15:49:17.439Z,87.50
2018-10-06T15:51:46.074Z,87.60
2018-10-06T15:54:15.485Z,86.40
2018-10-06T15:56:45.546Z,86.80
2018-10-06T15:59:14.987Z,87.80
2018-10-06T16:01:43.879Z,88.30
2018-10-06T16:04:13.111Z,87.10
2018-10-06T16:06:42.404Z,87.70
2018-10-06T16:09:13.004Z,88.30
2018-10-06T16:11:43.314Z,88.50
2018-10-06T16:14:12.267Z,88.40
2018-10-06T16:16:44.224Z,88.10
2018-10-06T16:19:24.240Z,87.80
2018-10-06T16:21:56.492Z,88.00
2018-10-06T16:24:28.405Z,88.40
2018-10-06T16:26:58.304Z,88.40
2018-10-06T16:29:27.860Z,88.50
2018-10-06T16:31:59.127Z,88.70
2018-10-06T16:34:32.379Z,88.90
2018-10-06T16:37:03.281Z,89.20
2018-10-06T16:39:34.435Z,89.50
2018-10-06T16:42:04.484Z,89.30
2018-10-06T16:44:36.181Z,89.10
2018-10-06T16:47:06.001Z,89.10
2018-10-06T16:49:36.508Z,88.00
2018-10-06T16:52:08.447Z,88.40
2018-10-06T16:54:38.778Z,88.00
2018-10-06T16:57:08.159Z,88.50
2018-10-06T16:59:38.712Z,87.50
2018-10-06T17:02:11.205Z,87.10
2018-10-06T17:04:41.809Z,87.20
2018-10-06T17:07:11.319Z,87.70
2018-10-06T17:09:42.919Z,86.80
2018-10-06T17:12:14.498Z,87.60
2018-10-06T17:15:02.608Z,88.20
2018-10-06T17:17:36.214Z,88.50
2018-10-06T17:20:06.108Z,88.40
2018-10-06T17:22:36.165Z,88.60
2018-10-06T17:25:04.780Z,88.30
2018-10-06T17:27:35.673Z,88.40
2018-10-06T17:30:04.333Z,88.80
2018-10-06T17:32:51.543Z,89.00
2018-10-06T17:35:26.884Z,89.50
2018-10-06T17:37:57.637Z,89.40
2018-10-06T17:40:29.397Z,88.90
2018-10-06T17:43:00.360Z,89.20
2018-10-06T17:45:30.585Z,89.40
2018-10-06T17:48:04.859Z,89.40
2018-10-06T17:50:37.504Z,89.60
2018-10-06T17:53:06.071Z,89.10
2018-10-06T17:55:35.841Z,88.60
2018-10-06T17:58:24.089Z,88.80
2018-10-06T18:01:05.317Z,88.60
2018-10-06T18:03:36.286Z,90.00
2018-10-06T18:06:08.561Z,89.40
2018-10-06T18:08:43.691Z,89.80
2018-10-06T18:11:13.157Z,90.10
2018-10-06T18:13:59.142Z,90.20
2018-10-06T18:16:47.417Z,90.30
2018-10-06T18:19:42.407Z,90.30
2018-10-06T18:22:15.135Z,90.30
2018-10-06T18:25:08.193Z,90.50
2018-10-06T18:27:40.306Z,90.70
2018-10-06T18:30:13.261Z,90.60
2018-10-06T18:32:45.129Z,90.30
2018-10-06T18:35:20.024Z,90.60
2018-10-06T18:37:54.166Z,90.70
2018-10-06T18:40:35.035Z,90.70
2018-10-06T18:43:03.610Z,90.90
2018-10-06T18:45:36.089Z,91.00
2018-10-06T18:48:05.029Z,90.90
2018-10-06T18:50:37.957Z,90.70
2018-10-06T18:53:08.689Z,90.70
2018-10-06T18:55:42.039Z,90.60
2018-10-06T18:58:12.442Z,90.80
2018-10-06T19:00:45.387Z,90.80
2018-10-06T19:03:14.800Z,90.90
2018-10-06T19:05:46.745Z,91.00
2018-10-06T19:08:15.365Z,91.40
2018-10-06T19:10:43.889Z,91.40
2018-10-06T19:13:14.065Z,91.20
2018-10-06T19:15:43.731Z,91.30
2018-10-06T19:18:12.992Z,91.40
2018-10-06T19:20:47.075Z,91.30
2018-10-06T19:23:17.598Z,91.20
2018-10-06T19:25:48.541Z,91.30
2018-10-06T19:28:17.652Z,91.40
2018-10-06T19:30:46.457Z,91.60
2018-10-06T19:33:18.922Z,91.70
2018-10-06T19:35:48.293Z,91.50
2018-10-06T19:38:20.121Z,91.50
2018-10-06T19:40:48.985Z,91.80
2018-10-06T19:43:19.701Z,91.90
2018-10-06T19:45:49.226Z,92.10
2018-10-06T19:48:17.683Z,92.20
2018-10-06T19:50:48.036Z,92.00
2018-10-06T19:53:16.848Z,92.00
2018-10-06T19:55:46.496Z,91.90
2018-10-06T19:58:15.336Z,91.90
2018-10-06T20:00:44.287Z,91.90
2018-10-06T20:03:13.112Z,92.20
2018-10-06T20:05:41.753Z,92.30
2018-10-06T20:08:11.658Z,92.20
2018-10-06T20:10:40.141Z,92.30
2018-10-06T20:13:08.834Z,92.40
2018-10-06T20:15:42.138Z,92.30
2018-10-06T20:18:10.715Z,92.20
2018-10-06T20:20:40.719Z,92.00
2018-10-06T20:23:10.763Z,91.90
2018-10-06T20:25:41.294Z,92.10
2018-10-06T20:28:10.833Z,92.20
2018-10-06T20:30:44.036Z,91.90
2018-10-06T20:33:13.874Z,92.20
2018-10-06T20:35:46.028Z,91.90
2018-10-06T20:38:14.589Z,92.40
2018-10-06T20:40:43.709Z,92.50
2018-10-06T20:43:12.325Z,92.70
2018-10-06T20:45:42.449Z,93.00
2018-10-06T20:48:15.562Z,93.10
2018-10-06T20:50:44.383Z,92.70
2018-10-06T20:53:13.221Z,92.60
2018-10-06T20:55:44.071Z,92.50
2018-10-06T20:58:14.146Z,92.60
2018-10-06T21:00:42.760Z,92.60
2018-10-06T21:03:12.393Z,92.50
2018-10-06T21:05:40.932Z,92.70
2018-10-06T21:08:09.867Z,92.70
2018-10-06T21:10:38.581Z,92.70
2018-10-06T21:13:07.189Z,92.70
2018-10-06T21:15:36.090Z,92.90
2018-10-06T21:18:05.035Z,92.90
2018-10-06T21:20:34.167Z,92.90
2018-10-06T21:23:02.964Z,92.80
2018-10-06T21:25:31.481Z,92.80
2018-10-06T21:28:00.949Z,92.70
2018-10-06T21:30:29.449Z,92.60
2018-10-06T21:32:58.142Z,92.70
2018-10-06T21:35:27.026Z,92.70
2018-10-06T21:37:55.884Z,92.60
2018-10-06T21:40:24.418Z,92.70
2018-10-06T21:42:53.877Z,92.60
2018-10-06T21:45:22.359Z,92.70
2018-10-06T21:47:50.948Z,92.70
2018-10-06T21:50:19.540Z,92.70
2018-10-06T21:52:48.208Z,92.70
2018-10-06T21:55:16.935Z,92.70
2018-10-06T21:57:45.776Z,92.60
2018-10-06T22:00:14.475Z,92.60
2018-10-06T22:02:42.981Z,92.60
2018-10-06T22:05:11.841Z,92.70
2018-10-06T22:07:40.578Z,92.70
2018-10-06T22:10:09.124Z,92.80
2018-10-06T22:12:37.700Z,92.70
2018-10-06T22:15:06.625Z,92.60
2018-10-06T22:17:35.590Z,92.50
2018-10-06T22:20:04.279Z,92.50
2018-10-06T22:22:32.866Z,92.50
2018-10-06T22:25:01.588Z,92.50
2018-10-06T22:27:30.171Z,92.50
2018-10-06T22:29:58.871Z,92.70
2018-10-06T22:32:27.609Z,92.70
2018-10-06T22:34:56.469Z,92.60
2018-10-06T22:37:24.955Z,92.50
2018-10-06T22:39:53.884Z,92.60
2018-10-06T22:42:22.726Z,92.70
2018-10-06T22:44:51.418Z,92.60
2018-10-06T22:47:20.350Z,92.70
2018-10-06T22:49:48.842Z,92.70
2018-10-06T22:52:17.510Z,92.60
2018-10-06T22:54:46.403Z,92.60
2018-10-06T22:57:15.308Z,92.80
2018-10-06T22:59:43.937Z,92.70
2018-10-06T23:02:12.441Z,92.80
2018-10-06T23:04:40.693Z,92.70
2018-10-06T23:07:09.396Z,92.80
2018-10-06T23:09:38.031Z,92.80
2018-10-06T23:12:06.556Z,92.80
2018-10-06T23:14:35.447Z,92.80
2018-10-06T23:17:04.171Z,92.80
2018-10-06T23:19:33.041Z,92.90
2018-10-06T23:22:07.186Z,93.10
2018-10-06T23:24:35.914Z,93.00
2018-10-06T23:27:04.609Z,93.10
2018-10-06T23:29:33.283Z,93.40
2018-10-06T23:32:01.766Z,93.40
2018-10-06T23:34:30.209Z,93.40
2018-10-06T23:36:58.959Z,93.40
2018-10-06T23:39:27.803Z,93.60
2018-10-06T23:41:56.712Z,93.50
2018-10-06T23:44:25.215Z,93.40
2018-10-06T23:46:53.849Z,93.40
2018-10-06T23:49:22.551Z,93.50
2018-10-06T23:51:51.048Z,93.50
2018-10-06T23:54:19.730Z,93.50
2018-10-06T23:56:48.414Z,93.40
2018-10-06T23:59:16.894Z,93.30
